sensor_id;sensor_type;location;lat;lon;timestamp;P1;durP1;ratioP1;P2;durP2;ratioP2
4448;SDS011;2237;51.870;6.160;2022-10-16T00:00:44;5.03;;;1.88;;
4448;SDS011;2237;51.870;6.160;2022-10-16T00:03:18;7.80;;;2.10;;
4448;SDS011;2237;51.870;6.160;2022-10-16T00:05:44;8.30;;;2.05;;
4448;SDS011;2237;51.870;6.160;2022-10-16T00:08:11;5.88;;;2.20;;
4448;SDS011;2237;51.870;6.160;2022-10-16T00:10:38;5.47;;;2.65;;
4448;SDS011;2237;51.870;6.160;2022-10-16T00:13:05;5.13;;;2.13;;
4448;SDS011;2237;51.870;6.160;2022-10-16T00:15:35;8.32;;;2.38;;
4448;SDS011;2237;51.870;6.160;2022-10-16T00:18:03;8.48;;;2.80;;
4448;SDS011;2237;51.870;6.160;2022-10-16T00:20:33;6.03;;;2.60;;
4448;SDS011;2237;51.870;6.160;2022-10-16T00:23:00;6.72;;;2.47;;
4448;SDS011;2237;51.870;6.160;2022-10-16T00:25:26;5.03;;;2.25;;
4448;SDS011;2237;51.870;6.160;2022-10-16T00:27:53;6.72;;;2.88;;
4448;SDS011;2237;51.870;6.160;2022-10-16T00:30:19;5.13;;;2.60;;
4448;SDS011;2237;51.870;6.160;2022-10-16T00:32:46;6.45;;;2.63;;
4448;SDS011;2237;51.870;6.160;2022-10-16T00:35:12;4.88;;;2.40;;
4448;SDS011;2237;51.870;6.160;2022-10-16T00:37:38;6.90;;;2.80;;
4448;SDS011;2237;51.870;6.160;2022-10-16T00:40:05;5.10;;;2.50;;
4448;SDS011;2237;51.870;6.160;2022-10-16T00:42:32;7.70;;;2.92;;
4448;SDS011;2237;51.870;6.160;2022-10-16T00:44:58;7.75;;;3.05;;
4448;SDS011;2237;51.870;6.160;2022-10-16T00:47:29;7.78;;;2.80;;
4448;SDS011;2237;51.870;6.160;2022-10-16T00:49:59;6.45;;;2.92;;
4448;SDS011;2237;51.870;6.160;2022-10-16T00:52:39;7.80;;;3.17;;
4448;SDS011;2237;51.870;6.160;2022-10-16T00:55:10;6.30;;;2.60;;
4448;SDS011;2237;51.870;6.160;2022-10-16T00:57:36;9.10;;;2.50;;
4448;SDS011;2237;51.870;6.160;2022-10-16T01:00:04;6.45;;;2.70;;
4448;SDS011;2237;51.870;6.160;2022-10-16T01:02:33;4.78;;;2.60;;
4448;SDS011;2237;51.870;6.160;2022-10-16T01:04:59;5.50;;;2.95;;
4448;SDS011;2237;51.870;6.160;2022-10-16T01:07:30;5.20;;;2.33;;
4448;SDS011;2237;51.870;6.160;2022-10-16T01:17:51;6.57;;;2.53;;
4448;SDS011;2237;51.870;6.160;2022-10-16T01:23:20;8.63;;;2.78;;
4448;SDS011;2237;51.870;6.160;2022-10-16T01:28:41;8.07;;;2.20;;
4448;SDS011;2237;51.870;6.160;2022-10-16T01:31:17;5.07;;;2.30;;
4448;SDS011;2237;51.870;6.160;2022-10-16T01:33:47;4.43;;;2.13;;
4448;SDS011;2237;51.870;6.160;2022-10-16T01:36:23;4.90;;;2.15;;
4448;SDS011;2237;51.870;6.160;2022-10-16T01:38:55;5.18;;;2.38;;
4448;SDS011;2237;51.870;6.160;2022-10-16T01:41:26;5.95;;;2.58;;
4448;SDS011;2237;51.870;6.160;2022-10-16T01:43:59;10.82;;;2.22;;
4448;SDS011;2237;51.870;6.160;2022-10-16T01:46:36;6.18;;;2.33;;
4448;SDS011;2237;51.870;6.160;2022-10-16T01:49:05;3.30;;;2.05;;
4448;SDS011;2237;51.870;6.160;2022-10-16T01:51:34;5.25;;;1.90;;
4448;SDS011;2237;51.870;6.160;2022-10-16T01:54:01;4.78;;;2.28;;
4448;SDS011;2237;51.870;6.160;2022-10-16T01:56:31;5.35;;;1.83;;
4448;SDS011;2237;51.870;6.160;2022-10-16T02:01:31;3.55;;;1.75;;
4448;SDS011;2237;51.870;6.160;2022-10-16T02:04:01;2.92;;;1.75;;
4448;SDS011;2237;51.870;6.160;2022-10-16T02:06:31;6.78;;;2.33;;
4448;SDS011;2237;51.870;6.160;2022-10-16T02:08:58;3.92;;;1.67;;
4448;SDS011;2237;51.870;6.160;2022-10-16T02:11:25;3.45;;;1.90;;
4448;SDS011;2237;51.870;6.160;2022-10-16T02:13:53;3.47;;;1.65;;
4448;SDS011;2237;51.870;6.160;2022-10-16T02:16:38;4.70;;;1.73;;
4448;SDS011;2237;51.870;6.160;2022-10-16T02:19:07;4.00;;;1.75;;
4448;SDS011;2237;51.870;6.160;2022-10-16T02:21:42;5.60;;;1.92;;
4448;SDS011;2237;51.870;6.160;2022-10-16T02:24:18;4.82;;;1.95;;
4448;SDS011;2237;51.870;6.160;2022-10-16T02:27:12;4.90;;;2.08;;
4448;SDS011;2237;51.870;6.160;2022-10-16T02:29:47;3.50;;;1.70;;
4448;SDS011;2237;51.870;6.160;2022-10-16T02:32:22;3.00;;;1.88;;
4448;SDS011;2237;51.870;6.160;2022-10-16T02:34:55;2.83;;;1.70;;
4448;SDS011;2237;51.870;6.160;2022-10-16T02:37:24;3.95;;;1.83;;
4448;SDS011;2237;51.870;6.160;2022-10-16T02:39:51;1.92;;;1.30;;
4448;SDS011;2237;51.870;6.160;2022-10-16T02:42:19;4.72;;;1.48;;
4448;SDS011;2237;51.870;6.160;2022-10-16T02:44:45;1.90;;;0.90;;
4448;SDS011;2237;51.870;6.160;2022-10-16T02:47:12;3.25;;;1.50;;
4448;SDS011;2237;51.870;6.160;2022-10-16T02:49:38;3.97;;;1.52;;
4448;SDS011;2237;51.870;6.160;2022-10-16T02:52:05;3.20;;;1.50;;
4448;SDS011;2237;51.870;6.160;2022-10-16T02:54:31;1.50;;;1.15;;
4448;SDS011;2237;51.870;6.160;2022-10-16T02:56:57;2.05;;;1.20;;
4448;SDS011;2237;51.870;6.160;2022-10-16T02:59:24;2.15;;;1.38;;
4448;SDS011;2237;51.870;6.160;2022-10-16T03:01:50;3.40;;;1.20;;
4448;SDS011;2237;51.870;6.160;2022-10-16T03:04:16;2.80;;;1.25;;
4448;SDS011;2237;51.870;6.160;2022-10-16T03:06:43;2.50;;;1.50;;
4448;SDS011;2237;51.870;6.160;2022-10-16T03:09:09;4.70;;;1.63;;
4448;SDS011;2237;51.870;6.160;2022-10-16T03:11:36;2.72;;;1.58;;
4448;SDS011;2237;51.870;6.160;2022-10-16T03:14:02;4.43;;;1.50;;
4448;SDS011;2237;51.870;6.160;2022-10-16T03:16:28;6.45;;;1.52;;
4448;SDS011;2237;51.870;6.160;2022-10-16T03:18:55;2.85;;;1.30;;
4448;SDS011;2237;51.870;6.160;2022-10-16T03:21:21;3.67;;;1.70;;
4448;SDS011;2237;51.870;6.160;2022-10-16T03:23:47;3.38;;;1.60;;
4448;SDS011;2237;51.870;6.160;2022-10-16T03:26:14;3.17;;;2.10;;
4448;SDS011;2237;51.870;6.160;2022-10-16T03:28:40;4.80;;;2.53;;
4448;SDS011;2237;51.870;6.160;2022-10-16T03:31:07;2.58;;;1.45;;
4448;SDS011;2237;51.870;6.160;2022-10-16T03:33:34;3.58;;;1.77;;
4448;SDS011;2237;51.870;6.160;2022-10-16T03:36:00;3.40;;;1.80;;
4448;SDS011;2237;51.870;6.160;2022-10-16T03:38:27;2.67;;;1.80;;
4448;SDS011;2237;51.870;6.160;2022-10-16T03:40:53;3.05;;;1.55;;
4448;SDS011;2237;51.870;6.160;2022-10-16T03:43:19;2.30;;;1.48;;
4448;SDS011;2237;51.870;6.160;2022-10-16T03:45:46;2.88;;;1.52;;
4448;SDS011;2237;51.870;6.160;2022-10-16T03:48:12;1.92;;;1.40;;
4448;SDS011;2237;51.870;6.160;2022-10-16T03:50:38;4.68;;;1.27;;
4448;SDS011;2237;51.870;6.160;2022-10-16T03:53:05;2.58;;;1.50;;
4448;SDS011;2237;51.870;6.160;2022-10-16T03:55:31;5.63;;;1.80;;
4448;SDS011;2237;51.870;6.160;2022-10-16T03:57:57;2.80;;;1.30;;
4448;SDS011;2237;51.870;6.160;2022-10-16T04:00:24;3.78;;;1.55;;
4448;SDS011;2237;51.870;6.160;2022-10-16T04:02:50;4.30;;;1.70;;
4448;SDS011;2237;51.870;6.160;2022-10-16T04:05:16;2.85;;;1.25;;
4448;SDS011;2237;51.870;6.160;2022-10-16T04:07:43;3.50;;;1.40;;
4448;SDS011;2237;51.870;6.160;2022-10-16T04:10:09;3.60;;;1.50;;
4448;SDS011;2237;51.870;6.160;2022-10-16T04:12:36;4.25;;;1.63;;
4448;SDS011;2237;51.870;6.160;2022-10-16T04:15:02;2.97;;;1.50;;
4448;SDS011;2237;51.870;6.160;2022-10-16T04:17:29;4.53;;;1.77;;
4448;SDS011;2237;51.870;6.160;2022-10-16T04:19:55;3.22;;;1.40;;
4448;SDS011;2237;51.870;6.160;2022-10-16T04:22:21;6.15;;;1.85;;
4448;SDS011;2237;51.870;6.160;2022-10-16T04:24:48;2.50;;;1.35;;
4448;SDS011;2237;51.870;6.160;2022-10-16T04:27:14;2.83;;;1.40;;
4448;SDS011;2237;51.870;6.160;2022-10-16T04:29:41;1.90;;;1.25;;
4448;SDS011;2237;51.870;6.160;2022-10-16T04:32:10;2.92;;;1.10;;
4448;SDS011;2237;51.870;6.160;2022-10-16T04:34:36;1.77;;;1.10;;
4448;SDS011;2237;51.870;6.160;2022-10-16T04:37:05;4.72;;;1.48;;
4448;SDS011;2237;51.870;6.160;2022-10-16T04:39:32;3.47;;;1.60;;
4448;SDS011;2237;51.870;6.160;2022-10-16T04:41:58;2.80;;;1.40;;
4448;SDS011;2237;51.870;6.160;2022-10-16T04:44:24;1.88;;;1.25;;
4448;SDS011;2237;51.870;6.160;2022-10-16T04:46:51;3.58;;;1.50;;
4448;SDS011;2237;51.870;6.160;2022-10-16T04:49:17;2.30;;;1.33;;
4448;SDS011;2237;51.870;6.160;2022-10-16T04:51:44;2.75;;;1.30;;
4448;SDS011;2237;51.870;6.160;2022-10-16T04:54:10;2.08;;;1.17;;
4448;SDS011;2237;51.870;6.160;2022-10-16T04:56:37;2.88;;;1.58;;
4448;SDS011;2237;51.870;6.160;2022-10-16T04:59:09;2.53;;;1.15;;
4448;SDS011;2237;51.870;6.160;2022-10-16T05:01:35;2.65;;;1.33;;
4448;SDS011;2237;51.870;6.160;2022-10-16T05:04:02;2.15;;;1.20;;
4448;SDS011;2237;51.870;6.160;2022-10-16T05:06:28;2.42;;;1.35;;
4448;SDS011;2237;51.870;6.160;2022-10-16T05:08:54;4.57;;;1.60;;
4448;SDS011;2237;51.870;6.160;2022-10-16T05:11:21;3.20;;;1.13;;
4448;SDS011;2237;51.870;6.160;2022-10-16T05:13:47;3.30;;;1.77;;
4448;SDS011;2237;51.870;6.160;2022-10-16T05:16:18;2.17;;;1.25;;
4448;SDS011;2237;51.870;6.160;2022-10-16T05:18:45;2.85;;;1.63;;
4448;SDS011;2237;51.870;6.160;2022-10-16T05:21:11;3.45;;;1.20;;
4448;SDS011;2237;51.870;6.160;2022-10-16T05:23:37;2.38;;;1.52;;
4448;SDS011;2237;51.870;6.160;2022-10-16T05:26:04;4.32;;;1.60;;
4448;SDS011;2237;51.870;6.160;2022-10-16T05:28:30;2.17;;;1.30;;
4448;SDS011;2237;51.870;6.160;2022-10-16T05:30:57;6.25;;;1.60;;
4448;SDS011;2237;51.870;6.160;2022-10-16T05:33:24;2.78;;;1.35;;
4448;SDS011;2237;51.870;6.160;2022-10-16T05:35:51;5.60;;;1.52;;
4448;SDS011;2237;51.870;6.160;2022-10-16T05:38:18;2.65;;;1.40;;
4448;SDS011;2237;51.870;6.160;2022-10-16T05:40:50;3.13;;;1.45;;
4448;SDS011;2237;51.870;6.160;2022-10-16T05:43:18;2.38;;;1.52;;
4448;SDS011;2237;51.870;6.160;2022-10-16T05:45:53;2.85;;;1.30;;
4448;SDS011;2237;51.870;6.160;2022-10-16T05:48:31;3.33;;;1.50;;
4448;SDS011;2237;51.870;6.160;2022-10-16T05:51:03;4.07;;;1.60;;
4448;SDS011;2237;51.870;6.160;2022-10-16T05:53:34;2.88;;;1.45;;
4448;SDS011;2237;51.870;6.160;2022-10-16T05:56:02;3.35;;;1.40;;
4448;SDS011;2237;51.870;6.160;2022-10-16T05:58:30;3.03;;;1.25;;
4448;SDS011;2237;51.870;6.160;2022-10-16T06:00:59;3.10;;;1.73;;
4448;SDS011;2237;51.870;6.160;2022-10-16T06:03:27;3.80;;;1.27;;
4448;SDS011;2237;51.870;6.160;2022-10-16T06:05:54;3.55;;;1.58;;
4448;SDS011;2237;51.870;6.160;2022-10-16T06:08:21;3.78;;;1.70;;
4448;SDS011;2237;51.870;6.160;2022-10-16T06:10:49;3.28;;;1.52;;
4448;SDS011;2237;51.870;6.160;2022-10-16T06:13:26;3.92;;;1.80;;
4448;SDS011;2237;51.870;6.160;2022-10-16T06:15:53;3.33;;;1.42;;
4448;SDS011;2237;51.870;6.160;2022-10-16T06:18:19;4.97;;;1.90;;
4448;SDS011;2237;51.870;6.160;2022-10-16T06:20:45;2.83;;;1.52;;
4448;SDS011;2237;51.870;6.160;2022-10-16T06:23:12;4.60;;;1.98;;
4448;SDS011;2237;51.870;6.160;2022-10-16T06:25:38;5.57;;;1.83;;
4448;SDS011;2237;51.870;6.160;2022-10-16T06:28:04;4.57;;;1.88;;
4448;SDS011;2237;51.870;6.160;2022-10-16T06:30:31;3.67;;;1.67;;
4448;SDS011;2237;51.870;6.160;2022-10-16T06:32:57;4.05;;;1.77;;
4448;SDS011;2237;51.870;6.160;2022-10-16T06:35:23;3.45;;;1.83;;
4448;SDS011;2237;51.870;6.160;2022-10-16T06:37:52;5.35;;;1.90;;
4448;SDS011;2237;51.870;6.160;2022-10-16T06:40:18;2.30;;;1.33;;
4448;SDS011;2237;51.870;6.160;2022-10-16T06:42:45;3.30;;;1.70;;
4448;SDS011;2237;51.870;6.160;2022-10-16T06:45:11;3.53;;;1.65;;
4448;SDS011;2237;51.870;6.160;2022-10-16T06:47:38;5.60;;;1.55;;
4448;SDS011;2237;51.870;6.160;2022-10-16T06:50:05;10.25;;;2.15;;
4448;SDS011;2237;51.870;6.160;2022-10-16T06:52:33;5.97;;;2.22;;
4448;SDS011;2237;51.870;6.160;2022-10-16T06:55:00;5.45;;;1.65;;
4448;SDS011;2237;51.870;6.160;2022-10-16T06:57:26;4.22;;;1.75;;
4448;SDS011;2237;51.870;6.160;2022-10-16T06:59:53;3.78;;;1.35;;
4448;SDS011;2237;51.870;6.160;2022-10-16T07:02:20;2.50;;;1.45;;
4448;SDS011;2237;51.870;6.160;2022-10-16T07:04:47;2.55;;;1.40;;
4448;SDS011;2237;51.870;6.160;2022-10-16T07:07:13;2.33;;;1.38;;
4448;SDS011;2237;51.870;6.160;2022-10-16T07:09:40;2.70;;;1.52;;
4448;SDS011;2237;51.870;6.160;2022-10-16T07:12:06;5.70;;;1.17;;
4448;SDS011;2237;51.870;6.160;2022-10-16T07:14:32;3.22;;;1.10;;
4448;SDS011;2237;51.870;6.160;2022-10-16T07:16:59;2.22;;;1.25;;
4448;SDS011;2237;51.870;6.160;2022-10-16T07:19:25;3.45;;;1.38;;
4448;SDS011;2237;51.870;6.160;2022-10-16T07:21:57;1.70;;;1.20;;
4448;SDS011;2237;51.870;6.160;2022-10-16T07:24:23;2.08;;;0.98;;
4448;SDS011;2237;51.870;6.160;2022-10-16T07:26:50;4.18;;;1.30;;
4448;SDS011;2237;51.870;6.160;2022-10-16T07:29:18;2.35;;;1.00;;
4448;SDS011;2237;51.870;6.160;2022-10-16T07:31:47;2.38;;;1.65;;
4448;SDS011;2237;51.870;6.160;2022-10-16T07:34:15;4.43;;;1.50;;
4448;SDS011;2237;51.870;6.160;2022-10-16T07:36:43;6.28;;;1.25;;
4448;SDS011;2237;51.870;6.160;2022-10-16T07:39:10;3.58;;;1.30;;
4448;SDS011;2237;51.870;6.160;2022-10-16T07:41:36;1.23;;;0.80;;
4448;SDS011;2237;51.870;6.160;2022-10-16T07:44:03;2.72;;;1.30;;
4448;SDS011;2237;51.870;6.160;2022-10-16T07:46:30;5.10;;;1.42;;
4448;SDS011;2237;51.870;6.160;2022-10-16T07:48:57;1.92;;;1.20;;
4448;SDS011;2237;51.870;6.160;2022-10-16T07:51:24;1.50;;;0.88;;
4448;SDS011;2237;51.870;6.160;2022-10-16T07:53:51;2.85;;;1.33;;
4448;SDS011;2237;51.870;6.160;2022-10-16T07:56:19;2.85;;;1.10;;
4448;SDS011;2237;51.870;6.160;2022-10-16T07:58:47;5.85;;;1.30;;
4448;SDS011;2237;51.870;6.160;2022-10-16T08:01:15;3.38;;;1.58;;
4448;SDS011;2237;51.870;6.160;2022-10-16T08:03:44;4.53;;;1.73;;
4448;SDS011;2237;51.870;6.160;2022-10-16T08:06:11;2.30;;;1.10;;
4448;SDS011;2237;51.870;6.160;2022-10-16T08:08:38;4.15;;;1.50;;
4448;SDS011;2237;51.870;6.160;2022-10-16T08:11:04;2.25;;;1.25;;
4448;SDS011;2237;51.870;6.160;2022-10-16T08:13:31;3.80;;;1.27;;
4448;SDS011;2237;51.870;6.160;2022-10-16T08:15:58;3.75;;;1.50;;
4448;SDS011;2237;51.870;6.160;2022-10-16T08:18:24;2.63;;;1.30;;
4448;SDS011;2237;51.870;6.160;2022-10-16T08:20:58;4.68;;;1.50;;
4448;SDS011;2237;51.870;6.160;2022-10-16T09:22:47;2.28;;;1.30;;
4448;SDS011;2237;51.870;6.160;2022-10-16T09:25:17;4.97;;;1.33;;
4448;SDS011;2237;51.870;6.160;2022-10-16T09:27:47;4.70;;;1.25;;
4448;SDS011;2237;51.870;6.160;2022-10-16T09:30:16;4.20;;;1.20;;
4448;SDS011;2237;51.870;6.160;2022-10-16T09:32:44;3.70;;;1.23;;
4448;SDS011;2237;51.870;6.160;2022-10-16T09:35:15;6.80;;;1.40;;
4448;SDS011;2237;51.870;6.160;2022-10-16T09:37:44;2.73;;;1.20;;
4448;SDS011;2237;51.870;6.160;2022-10-16T09:40:13;5.35;;;1.63;;
4448;SDS011;2237;51.870;6.160;2022-10-16T09:42:57;3.40;;;1.10;;
4448;SDS011;2237;51.870;6.160;2022-10-16T09:45:53;4.50;;;1.52;;
4448;SDS011;2237;51.870;6.160;2022-10-16T09:48:26;3.50;;;0.90;;
4448;SDS011;2237;51.870;6.160;2022-10-16T09:50:59;5.50;;;1.13;;
4448;SDS011;2237;51.870;6.160;2022-10-16T09:53:38;4.88;;;1.17;;
4448;SDS011;2237;51.870;6.160;2022-10-16T09:56:10;6.05;;;1.50;;
4448;SDS011;2237;51.870;6.160;2022-10-16T09:58:49;5.57;;;0.93;;
4448;SDS011;2237;51.870;6.160;2022-10-16T10:01:17;7.20;;;2.00;;
4448;SDS011;2237;51.870;6.160;2022-10-16T10:03:45;6.35;;;1.00;;
4448;SDS011;2237;51.870;6.160;2022-10-16T10:06:29;4.38;;;1.15;;
4448;SDS011;2237;51.870;6.160;2022-10-16T10:09:06;4.35;;;1.10;;
4448;SDS011;2237;51.870;6.160;2022-10-16T10:11:36;3.65;;;0.90;;
4448;SDS011;2237;51.870;6.160;2022-10-16T10:14:04;12.35;;;1.42;;
4448;SDS011;2237;51.870;6.160;2022-10-16T10:16:46;3.13;;;1.23;;
4448;SDS011;2237;51.870;6.160;2022-10-16T10:19:17;10.18;;;2.33;;
4448;SDS011;2237;51.870;6.160;2022-10-16T10:21:45;8.70;;;1.25;;
4448;SDS011;2237;51.870;6.160;2022-10-16T10:24:13;5.93;;;1.40;;
4448;SDS011;2237;51.870;6.160;2022-10-16T10:26:48;6.82;;;1.63;;
4448;SDS011;2237;51.870;6.160;2022-10-16T10:29:28;5.70;;;1.10;;
4448;SDS011;2237;51.870;6.160;2022-10-16T10:37:49;5.93;;;1.20;;
4448;SDS011;2237;51.870;6.160;2022-10-16T10:40:43;4.15;;;1.42;;
4448;SDS011;2237;51.870;6.160;2022-10-16T10:46:22;4.85;;;1.10;;
4448;SDS011;2237;51.870;6.160;2022-10-16T10:49:02;7.70;;;1.88;;
4448;SDS011;2237;51.870;6.160;2022-10-16T10:56:55;13.27;;;2.10;;
4448;SDS011;2237;51.870;6.160;2022-10-16T11:02:29;6.15;;;1.20;;
4448;SDS011;2237;51.870;6.160;2022-10-16T11:05:20;5.28;;;1.08;;
4448;SDS011;2237;51.870;6.160;2022-10-16T11:08:11;8.10;;;1.50;;
4448;SDS011;2237;51.870;6.160;2022-10-16T11:10:53;8.80;;;1.70;;
4448;SDS011;2237;51.870;6.160;2022-10-16T11:16:02;11.02;;;1.17;;
4448;SDS011;2237;51.870;6.160;2022-10-16T11:18:52;2.33;;;0.68;;
4448;SDS011;2237;51.870;6.160;2022-10-16T11:21:24;6.72;;;1.00;;
4448;SDS011;2237;51.870;6.160;2022-10-16T11:23:58;6.10;;;0.88;;
4448;SDS011;2237;51.870;6.160;2022-10-16T11:26:35;6.85;;;1.00;;
4448;SDS011;2237;51.870;6.160;2022-10-16T11:29:13;9.75;;;1.58;;
4448;SDS011;2237;51.870;6.160;2022-10-16T11:31:47;9.93;;;1.67;;
4448;SDS011;2237;51.870;6.160;2022-10-16T11:34:22;4.88;;;0.90;;
4448;SDS011;2237;51.870;6.160;2022-10-16T11:37:06;6.80;;;1.10;;
4448;SDS011;2237;51.870;6.160;2022-10-16T11:39:38;11.27;;;1.52;;
4448;SDS011;2237;51.870;6.160;2022-10-16T11:42:10;8.13;;;2.40;;
4448;SDS011;2237;51.870;6.160;2022-10-16T11:44:53;8.38;;;1.00;;
4448;SDS011;2237;51.870;6.160;2022-10-16T11:53:45;6.20;;;1.45;;
4448;SDS011;2237;51.870;6.160;2022-10-16T11:56:20;7.47;;;1.13;;
4448;SDS011;2237;51.870;6.160;2022-10-16T11:59:10;5.82;;;0.90;;
4448;SDS011;2237;51.870;6.160;2022-10-16T12:01:48;3.97;;;0.80;;
4448;SDS011;2237;51.870;6.160;2022-10-16T12:07:37;3.47;;;0.88;;
4448;SDS011;2237;51.870;6.160;2022-10-16T12:10:18;7.93;;;0.70;;
4448;SDS011;2237;51.870;6.160;2022-10-16T12:12:52;7.05;;;1.27;;
4448;SDS011;2237;51.870;6.160;2022-10-16T12:18:07;4.00;;;1.10;;
4448;SDS011;2237;51.870;6.160;2022-10-16T12:20:53;3.50;;;0.60;;
4448;SDS011;2237;51.870;6.160;2022-10-16T12:23:25;8.18;;;1.10;;
4448;SDS011;2237;51.870;6.160;2022-10-16T12:25:55;2.40;;;0.70;;
4448;SDS011;2237;51.870;6.160;2022-10-16T12:28:27;5.47;;;1.13;;
4448;SDS011;2237;51.870;6.160;2022-10-16T12:30:56;7.35;;;0.95;;
4448;SDS011;2237;51.870;6.160;2022-10-16T12:33:30;7.82;;;1.10;;
4448;SDS011;2237;51.870;6.160;2022-10-16T12:35:59;7.65;;;1.05;;
4448;SDS011;2237;51.870;6.160;2022-10-16T12:38:29;6.93;;;1.55;;
4448;SDS011;2237;51.870;6.160;2022-10-16T12:41:04;9.43;;;0.90;;
4448;SDS011;2237;51.870;6.160;2022-10-16T12:48:41;8.98;;;1.00;;
4448;SDS011;2237;51.870;6.160;2022-10-16T12:57:03;4.85;;;0.90;;
4448;SDS011;2237;51.870;6.160;2022-10-16T13:00:04;5.70;;;0.77;;
4448;SDS011;2237;51.870;6.160;2022-10-16T13:13:50;5.07;;;1.10;;
4448;SDS011;2237;51.870;6.160;2022-10-16T13:24:18;6.78;;;1.02;;
4448;SDS011;2237;51.870;6.160;2022-10-16T13:26:57;5.40;;;0.70;;
4448;SDS011;2237;51.870;6.160;2022-10-16T13:29:33;5.40;;;1.10;;
4448;SDS011;2237;51.870;6.160;2022-10-16T13:32:00;5.65;;;1.70;;
4448;SDS011;2237;51.870;6.160;2022-10-16T13:34:33;5.45;;;1.10;;
4448;SDS011;2237;51.870;6.160;2022-10-16T13:37:19;8.00;;;1.30;;
4448;SDS011;2237;51.870;6.160;2022-10-16T13:39:48;5.65;;;1.60;;
4448;SDS011;2237;51.870;6.160;2022-10-16T13:42:21;6.30;;;1.30;;
4448;SDS011;2237;51.870;6.160;2022-10-16T13:44:54;3.50;;;1.00;;
4448;SDS011;2237;51.870;6.160;2022-10-16T13:47:26;4.68;;;1.13;;
4448;SDS011;2237;51.870;6.160;2022-10-16T13:50:15;4.10;;;1.02;;
4448;SDS011;2237;51.870;6.160;2022-10-16T13:52:43;10.20;;;1.73;;
4448;SDS011;2237;51.870;6.160;2022-10-16T13:55:17;7.40;;;1.13;;
4448;SDS011;2237;51.870;6.160;2022-10-16T13:57:44;5.75;;;1.27;;
4448;SDS011;2237;51.870;6.160;2022-10-16T14:00:24;3.85;;;1.02;;
4448;SDS011;2237;51.870;6.160;2022-10-16T14:02:58;3.00;;;1.13;;
4448;SDS011;2237;51.870;6.160;2022-10-16T14:05:40;8.30;;;1.10;;
4448;SDS011;2237;51.870;6.160;2022-10-16T14:08:13;4.13;;;0.95;;
4448;SDS011;2237;51.870;6.160;2022-10-16T14:10:39;3.75;;;0.90;;
4448;SDS011;2237;51.870;6.160;2022-10-16T14:13:07;6.32;;;1.55;;
4448;SDS011;2237;51.870;6.160;2022-10-16T14:15:34;4.00;;;0.70;;
4448;SDS011;2237;51.870;6.160;2022-10-16T14:18:02;9.00;;;1.10;;
4448;SDS011;2237;51.870;6.160;2022-10-16T14:20:30;5.05;;;0.90;;
4448;SDS011;2237;51.870;6.160;2022-10-16T14:23:03;5.78;;;0.90;;
4448;SDS011;2237;51.870;6.160;2022-10-16T14:25:48;5.15;;;1.10;;
4448;SDS011;2237;51.870;6.160;2022-10-16T14:28:18;9.52;;;0.98;;
4448;SDS011;2237;51.870;6.160;2022-10-16T14:38:25;4.70;;;1.03;;
4448;SDS011;2237;51.870;6.160;2022-10-16T14:40:52;7.40;;;1.48;;
4448;SDS011;2237;51.870;6.160;2022-10-16T14:43:26;7.07;;;0.85;;
4448;SDS011;2237;51.870;6.160;2022-10-16T14:45:54;8.35;;;0.98;;
4448;SDS011;2237;51.870;6.160;2022-10-16T14:48:23;4.25;;;1.50;;
4448;SDS011;2237;51.870;6.160;2022-10-16T14:50:50;7.20;;;1.10;;
4448;SDS011;2237;51.870;6.160;2022-10-16T14:53:17;3.75;;;0.80;;
4448;SDS011;2237;51.870;6.160;2022-10-16T14:55:43;4.00;;;0.65;;
4448;SDS011;2237;51.870;6.160;2022-10-16T14:58:14;4.90;;;0.80;;
4448;SDS011;2237;51.870;6.160;2022-10-16T15:00:43;5.95;;;1.15;;
4448;SDS011;2237;51.870;6.160;2022-10-16T15:03:10;5.28;;;0.98;;
4448;SDS011;2237;51.870;6.160;2022-10-16T15:05:37;5.05;;;0.70;;
4448;SDS011;2237;51.870;6.160;2022-10-16T15:08:03;6.38;;;0.95;;
4448;SDS011;2237;51.870;6.160;2022-10-16T15:10:31;6.65;;;1.33;;
4448;SDS011;2237;51.870;6.160;2022-10-16T15:13:02;7.45;;;0.90;;
4448;SDS011;2237;51.870;6.160;2022-10-16T15:15:36;6.18;;;0.75;;
4448;SDS011;2237;51.870;6.160;2022-10-16T15:18:04;8.00;;;1.58;;
4448;SDS011;2237;51.870;6.160;2022-10-16T15:20:34;4.20;;;1.33;;
4448;SDS011;2237;51.870;6.160;2022-10-16T15:23:02;8.85;;;1.80;;
4448;SDS011;2237;51.870;6.160;2022-10-16T15:28:00;7.95;;;1.40;;
4448;SDS011;2237;51.870;6.160;2022-10-16T15:30:28;4.18;;;0.90;;
4448;SDS011;2237;51.870;6.160;2022-10-16T15:32:55;10.23;;;1.77;;
4448;SDS011;2237;51.870;6.160;2022-10-16T15:35:22;5.63;;;1.23;;
4448;SDS011;2237;51.870;6.160;2022-10-16T15:37:48;7.03;;;1.80;;
4448;SDS011;2237;51.870;6.160;2022-10-16T15:40:16;8.13;;;1.35;;
4448;SDS011;2237;51.870;6.160;2022-10-16T15:42:44;4.07;;;1.27;;
4448;SDS011;2237;51.870;6.160;2022-10-16T15:45:10;6.25;;;1.55;;
4448;SDS011;2237;51.870;6.160;2022-10-16T15:47:37;5.03;;;1.40;;
4448;SDS011;2237;51.870;6.160;2022-10-16T15:50:11;8.32;;;1.10;;
4448;SDS011;2237;51.870;6.160;2022-10-16T15:52:39;4.35;;;0.90;;
4448;SDS011;2237;51.870;6.160;2022-10-16T15:55:09;4.85;;;1.20;;
4448;SDS011;2237;51.870;6.160;2022-10-16T15:57:37;7.70;;;1.10;;
4448;SDS011;2237;51.870;6.160;2022-10-16T16:00:05;5.65;;;0.95;;
4448;SDS011;2237;51.870;6.160;2022-10-16T16:02:36;6.57;;;1.00;;
4448;SDS011;2237;51.870;6.160;2022-10-16T16:05:02;5.32;;;1.35;;
4448;SDS011;2237;51.870;6.160;2022-10-16T16:07:33;2.85;;;0.93;;
4448;SDS011;2237;51.870;6.160;2022-10-16T16:10:00;6.30;;;1.40;;
4448;SDS011;2237;51.870;6.160;2022-10-16T16:12:28;4.55;;;1.40;;
4448;SDS011;2237;51.870;6.160;2022-10-16T16:14:55;7.68;;;1.45;;
4448;SDS011;2237;51.870;6.160;2022-10-16T16:17:21;6.55;;;1.30;;
4448;SDS011;2237;51.870;6.160;2022-10-16T16:19:48;7.65;;;1.88;;
4448;SDS011;2237;51.870;6.160;2022-10-16T16:22:14;4.00;;;1.58;;
4448;SDS011;2237;51.870;6.160;2022-10-16T16:24:40;9.35;;;2.10;;
4448;SDS011;2237;51.870;6.160;2022-10-16T16:27:07;5.75;;;2.30;;
4448;SDS011;2237;51.870;6.160;2022-10-16T16:29:35;7.25;;;1.70;;
4448;SDS011;2237;51.870;6.160;2022-10-16T16:32:02;8.52;;;2.20;;
4448;SDS011;2237;51.870;6.160;2022-10-16T16:34:28;5.95;;;1.50;;
4448;SDS011;2237;51.870;6.160;2022-10-16T16:36:55;6.60;;;1.60;;
4448;SDS011;2237;51.870;6.160;2022-10-16T16:39:22;5.30;;;1.80;;
4448;SDS011;2237;51.870;6.160;2022-10-16T16:41:49;9.00;;;1.67;;
4448;SDS011;2237;51.870;6.160;2022-10-16T16:44:16;9.32;;;2.35;;
4448;SDS011;2237;51.870;6.160;2022-10-16T16:46:43;5.30;;;1.83;;
4448;SDS011;2237;51.870;6.160;2022-10-16T16:49:11;8.75;;;1.90;;
4448;SDS011;2237;51.870;6.160;2022-10-16T16:51:38;7.93;;;2.00;;
4448;SDS011;2237;51.870;6.160;2022-10-16T16:54:06;8.88;;;2.25;;
4448;SDS011;2237;51.870;6.160;2022-10-16T16:56:33;8.50;;;2.20;;
4448;SDS011;2237;51.870;6.160;2022-10-16T16:59:00;8.80;;;1.75;;
4448;SDS011;2237;51.870;6.160;2022-10-16T17:01:27;11.65;;;3.10;;
4448;SDS011;2237;51.870;6.160;2022-10-16T17:03:54;8.45;;;3.35;;
4448;SDS011;2237;51.870;6.160;2022-10-16T17:06:23;8.30;;;2.83;;
4448;SDS011;2237;51.870;6.160;2022-10-16T17:08:51;12.00;;;3.58;;
4448;SDS011;2237;51.870;6.160;2022-10-16T17:11:20;8.48;;;2.80;;
4448;SDS011;2237;51.870;6.160;2022-10-16T17:13:48;7.82;;;2.78;;
4448;SDS011;2237;51.870;6.160;2022-10-16T17:16:22;5.63;;;1.90;;
4448;SDS011;2237;51.870;6.160;2022-10-16T17:18:54;6.72;;;1.30;;
4448;SDS011;2237;51.870;6.160;2022-10-16T17:21:20;9.57;;;2.22;;
4448;SDS011;2237;51.870;6.160;2022-10-16T17:23:50;4.95;;;1.20;;
4448;SDS011;2237;51.870;6.160;2022-10-16T17:26:17;3.03;;;1.05;;
4448;SDS011;2237;51.870;6.160;2022-10-16T17:28:44;5.22;;;1.80;;
4448;SDS011;2237;51.870;6.160;2022-10-16T17:33:39;7.13;;;1.58;;
4448;SDS011;2237;51.870;6.160;2022-10-16T17:36:06;4.53;;;0.90;;
4448;SDS011;2237;51.870;6.160;2022-10-16T17:38:33;4.63;;;1.00;;
4448;SDS011;2237;51.870;6.160;2022-10-16T17:43:57;4.60;;;1.38;;
4448;SDS011;2237;51.870;6.160;2022-10-16T17:46:30;7.47;;;1.83;;
4448;SDS011;2237;51.870;6.160;2022-10-16T17:49:08;8.55;;;2.00;;
4448;SDS011;2237;51.870;6.160;2022-10-16T17:51:44;4.40;;;1.60;;
4448;SDS011;2237;51.870;6.160;2022-10-16T17:54:11;9.40;;;1.75;;
4448;SDS011;2237;51.870;6.160;2022-10-16T17:56:49;12.57;;;1.95;;
4448;SDS011;2237;51.870;6.160;2022-10-16T17:59:16;4.03;;;1.35;;
4448;SDS011;2237;51.870;6.160;2022-10-16T18:01:42;5.55;;;1.73;;
4448;SDS011;2237;51.870;6.160;2022-10-16T18:04:12;9.32;;;1.90;;